^^
Grace C. Lehan Memorial Weather Station Historical Data
Daily Summary for September 1, 2021 Units:  English    Metric   Both
Daily Weekly Monthly Yearly
  High: Low: Average:
Temperature: 69.8 °F 61.6 °F 66.6 °F
Dew Point: 65.3 °F 60.6 °F 64 °F
Humidity: 97% 81.1% 92%
Wind Speed: 7.7mph 0mph 1mph
Wind Gust: 20mph - -
Wind- - SE
Pressure: 29.84 in 29.60 in -
Precipitation: 4.05 in    
 
 
Tabular Data for September 1, 2021
Time Temperature Dew Point Pressure Wind Wind Speed Wind Gust Humidity Rainfall Rate (Hourly) solar
00:04 69.8 °F 64.1 °F 29.75 in Calm     82% 0.00 in 0 W/m2
00:09 69.7 °F 63.7 °F 29.75 in Calm     81.2% 0.00 in 0 W/m2
00:14 69.7 °F 63.6 °F 29.75 in Calm     81.1% 0.00 in 0 W/m2
00:19 69.7 °F 63.7 °F 29.76 in Calm     81.3% 0.00 in 0 W/m2
00:24 69.7 °F 63.8 °F 29.76 in Calm     81.6% 0.00 in 0 W/m2
00:29 69.7 °F 63.9 °F 29.76 in Calm     81.8% 0.00 in 0 W/m2
00:34 69.7 °F 64 °F 29.76 in Calm     82% 0.00 in 0 W/m2
00:39 69.7 °F 64 °F 29.76 in Calm     82% 0.00 in 0 W/m2
00:44 69.6 °F 63.9 °F 29.76 in Calm     82% 0.00 in 0 W/m2
00:49 69.6 °F 63.9 °F 29.76 in Calm     82% 0.00 in 0 W/m2
00:54 69.5 °F 63.8 °F 29.76 in Calm     82% 0.00 in 0 W/m2
00:59 69.4 °F 63.9 °F 29.76 in Calm     82.6% 0.00 in 0 W/m2
01:04 69.3 °F 63.9 °F 29.76 in Calm     83% 0.00 in 0 W/m2
01:09 69.2 °F 63.8 °F 29.76 in Calm     83% 0.00 in 0 W/m2
01:14 69.1 °F 63.8 °F 29.76 in Calm     83% 0.00 in 0 W/m2
01:19 69.1 °F 63.7 °F 29.76 in Calm     83% 0.00 in 0 W/m2
01:24 69 °F 63.7 °F 29.76 in Calm     83% 0.00 in 0 W/m2
01:29 69 °F 63.6 °F 29.75 in Calm     83% 0.00 in 0 W/m2
01:34 69 °F 63.7 °F 29.76 in Calm     83.3% 0.00 in 0 W/m2
01:39 69 °F 63.9 °F 29.76 in Calm     83.7% 0.00 in 0 W/m2
01:44 69 °F 64 °F 29.75 in Calm     84% 0.00 in 0 W/m2
01:49 68.9 °F 63.9 °F 29.75 in Calm     84% 0.00 in 0 W/m2
01:54 68.8 °F 63.8 °F 29.75 in Calm     84% 0.00 in 0 W/m2
01:59 68.7 °F 63.7 °F 29.75 in Calm     84% 0.00 in 0 W/m2
02:04 68.7 °F 63.7 °F 29.75 in Calm     84% 0.00 in 0 W/m2
02:09 68.6 °F 63.9 °F 29.76 in Calm     85% 0.00 in 0 W/m2
02:14 68.6 °F 63.9 °F 29.75 in Calm     85% 0.00 in 0 W/m2
02:19 68.6 °F 64.2 °F 29.76 in Calm     86% 0.00 in 0 W/m2
02:24 68.5 °F 64.1 °F 29.76 in Calm     86% 0.00 in 0 W/m2
02:29 68.4 °F 64.1 °F 29.76 in Calm     86% 0.00 in 0 W/m2
02:34 68.4 °F 64.1 °F 29.76 in Calm     86% 0.00 in 0 W/m2
02:39 68.4 °F 64.1 °F 29.76 in Calm     86% 0.00 in 0 W/m2
02:44 68.5 °F 64.1 °F 29.76 in Calm     86% 0.00 in 0 W/m2
02:49 68.5 °F 64.2 °F 29.76 in Calm     86% 0.00 in 0 W/m2
02:54 68.6 °F 64.3 °F 29.76 in Calm     86% 0.00 in 0 W/m2
02:59 68.7 °F 64.3 °F 29.76 in Calm     86% 0.00 in 0 W/m2
03:04 68.7 °F 64.4 °F 29.76 in Calm     86% 0.00 in 0 W/m2
03:09 68.7 °F 64.4 °F 29.76 in Calm     86% 0.00 in 0 W/m2
03:14 68.8 °F 64.4 °F 29.76 in Calm     86% 0.00 in 0 W/m2
03:19 68.8 °F 64.4 °F 29.76 in Calm     86% 0.00 in 0 W/m2
03:24 68.8 °F 64.4 °F 29.76 in Calm     86% 0.00 in 0 W/m2
03:29 68.8 °F 64.2 °F 29.76 in Calm     85.2% 0.00 in 0 W/m2
03:34 68.9 °F 64.4 °F 29.76 in Calm     85.4% 0.00 in 0 W/m2
03:39 68.9 °F 64.6 °F 29.76 in Calm     86% 0.00 in 0 W/m2
03:44 68.9 °F 64.6 °F 29.76 in Calm     86% 0.00 in 0 W/m2
03:49 68.9 °F 64.6 °F 29.75 in Calm     86% 0.00 in 0 W/m2
03:54 69 °F 64.6 °F 29.75 in Calm     86% 0.00 in 0 W/m2
03:59 69 °F 64.6 °F 29.76 in Calm     86% 0.00 in 0 W/m2
04:00 69 °F 64.6 °F 29.76 in Calm     86% 0.00 in 0 W/m2
04:09 69 °F 64.6 °F 29.76 in Calm     86% 0.00 in 0 W/m2
04:14 69 °F 64.6 °F 29.76 in Calm     86% 0.00 in 0 W/m2
04:19 69 °F 64.6 °F 29.76 in Calm     86% 0.00 in 0 W/m2
04:24 69 °F 64.7 °F 29.76 in Calm     86% 0.00 in 0 W/m2
04:29 69.1 °F 64.7 °F 29.76 in Calm     86% 0.00 in 0 W/m2
04:34 69 °F 64.6 °F 29.76 in Calm     86% 0.00 in 0 W/m2
04:39 69 °F 64.9 °F 29.76 in Calm     86.8% 0.00 in 0 W/m2
04:44 69.1 °F 65 °F 29.76 in Calm     87% 0.00 in 0 W/m2
04:49 69 °F 65 °F 29.76 in Calm     87% 0.00 in 0 W/m2
04:54 69 °F 65 °F 29.76 in Calm     87% 0.00 in 0 W/m2
04:59 69 °F 65 °F 29.76 in Calm     87% 0.00 in 0 W/m2
05:04 69 °F 65 °F 29.76 in Calm     87% 0.00 in 0 W/m2
05:09 69 °F 65 °F 29.76 in Calm     87.2% 0.00 in 0 W/m2
05:14 69 °F 65.1 °F 29.76 in Calm     87.5% 0.00 in 0 W/m2
05:19 68.9 °F 65.2 °F 29.76 in Calm     88% 0.00 in 0 W/m2
05:24 68.9 °F 65.2 °F 29.76 in Calm     88% 0.00 in 0 W/m2
05:29 68.9 °F 65.2 °F 29.76 in Calm     88% 0.00 in 0 W/m2
05:34 68.9 °F 65.2 °F 29.76 in Calm     88% 0.00 in 0 W/m2
05:39 68.9 °F 65.2 °F 29.76 in Calm     88% 0.00 in 0 W/m2
05:44 68.8 °F 65.1 °F 29.76 in Calm     88% 0.00 in 0 W/m2
05:49 68.8 °F 65.1 °F 29.77 in Calm     88% 0.00 in 0 W/m2
05:54 68.8 °F 65.1 °F 29.77 in Calm     88% 0.00 in 0 W/m2
05:59 68.8 °F 65.1 °F 29.78 in Calm     88% 0.00 in 0 W/m2
06:04 68.7 °F 65.2 °F 29.78 in Calm     88.6% 0.00 in 0 W/m2
06:09 68.6 °F 65.3 °F 29.78 in Calm     89% 0.00 in 0 W/m2
06:14 68.6 °F 65.2 °F 29.78 in Calm     89% 0.00 in 0 W/m2
06:19 68.5 °F 64.9 °F 29.79 in Calm     88.4% 0.00 in 0 W/m2
06:24 68.5 °F 64.8 °F 29.79 in Calm     88% 0.00 in 0 W/m2
06:29 68.5 °F 64.8 °F 29.79 in Calm     88% 0.00 in 0 W/m2
06:34 68.5 °F 64.8 °F 29.79 in Calm     88% 0.00 in 0 W/m2
06:39 68.4 °F 64.6 °F 29.79 in Calm     87.8% 0.00 in 5 W/m2
06:44 68.3 °F 64.3 °F 29.80 in Calm     87% 0.00 in 5 W/m2
06:49 68.4 °F 64.3 °F 29.80 in Calm     87% 0.00 in 7 W/m2
06:54 68.4 °F 64.4 °F 29.80 in Calm     87% 0.00 in 7 W/m2
06:59 68.5 °F 64.5 °F 29.80 in Calm     87% 0.00 in 7 W/m2
07:04 68.5 °F 64.5 °F 29.81 in Calm     87% 0.00 in 7 W/m2
07:09 68.5 °F 64.6 °F 29.82 in Calm     87.3% 0.00 in 12 W/m2
07:14 68.5 °F 64.8 °F 29.82 in Calm     88% 0.01 in 12 W/m2
07:19 68.5 °F 64.9 °F 29.82 in Calm     88.3% 0.01 in 12 W/m2
07:24 68.5 °F 65.1 °F 29.82 in Calm     89% 0.01 in 12 W/m2
07:29 68.4 °F 65.1 °F 29.81 in Calm     89% 0.01 in 11 W/m2
07:34 68.4 °F 65.2 °F 29.81 in Calm     89.6% 0.01 in 11 W/m2
07:39 68.4 °F 65.3 °F 29.81 in Calm     90% 0.01 in 12 W/m2
07:44 68.3 °F 65.3 °F 29.81 in Calm     90% 0.01 in 12 W/m2
07:49 68.2 °F 65.1 °F 29.82 in Calm     90% 0.01 in 11 W/m2
07:54 68.1 °F 65.1 °F 29.82 in Calm     90% 0.01 in 12 W/m2
07:59 68 °F 65.3 °F 29.82 in Calm     90.9% 0.01 in 12 W/m2
08:00 68 °F 65.3 °F 29.82 in Calm     91% 0.01 in 11 W/m2
08:09 67.9 °F 65.2 °F 29.82 in Calm     91% 0.02 in 19 W/m2
08:14 67.8 °F 65.1 °F 29.82 in Calm     91% 0.03 in 18 W/m2
08:19 67.8 °F 65.1 °F 29.82 in Calm     91.1% 0.03 in 16 W/m2
08:24 67.7 °F 65.2 °F 29.82 in Calm     91.7% 0.03 in 16 W/m2
08:29 67.6 °F 64.9 °F 29.82 in Calm     91% 0.03 in 16 W/m2
08:34 67.6 °F 65.2 °F 29.82 in Calm     92% 0.03 in 18 W/m2
08:39 67.5 °F 65.1 °F 29.82 in Calm     92% 0.02 in 26 W/m2
08:44 67.5 °F 65.1 °F 29.82 in Calm     92% 0.02 in 26 W/m2
08:49 67.4 °F 65 °F 29.81 in Calm     92% 0.02 in 28 W/m2
08:54 67.2 °F 64.8 °F 29.82 in Calm     92% 0.03 in 32 W/m2
08:59 67.2 °F 64.8 °F 29.82 in Calm     92% 0.03 in 26 W/m2
09:04 67.1 °F 64.7 °F 29.82 in Calm     92% 0.03 in 28 W/m2
09:05 67.1 °F 64.7 °F 29.82 in Calm     92% 0.03 in 30 W/m2
09:30 66.5 °F 63.8 °F 29.82 in Calm     91% 0.02 in 38 W/m2
10:00 66.5 °F 64.4 °F 29.82 in Calm     93% 0.04 in 45 W/m2
10:30 66.2 °F 64.1 °F 29.82 in Calm     93% 0.07 in 67 W/m2
11:00 66.6 °F 64.8 °F 29.82 in Calm   3 mph 94% 0.11 in 69 W/m2
11:30 66.7 °F 64.9 °F 29.82 in Calm   2 mph 94% 0.09 in 144 W/m2
12:04 66.9 °F 65.1 °F 29.82 in Calm     94% 0.13 in 79 W/m2
12:09 67 °F 65.2 °F 29.82 in Calm     94% 0.14 in 118 W/m2
12:14 67 °F 65.2 °F 29.82 in Calm     94% 0.15 in 118 W/m2
12:19 66.9 °F 65.1 °F 29.83 in Calm     94% 0.15 in 54 W/m2
12:24 66.9 °F 65.1 °F 29.83 in Calm     94% 0.16 in 79 W/m2
12:29 66.9 °F 65.1 °F 29.82 in Calm     94% 0.18 in 84 W/m2
12:34 67 °F 65.2 °F 29.83 in Calm     94% 0.18 in 42 W/m2
12:39 67 °F 65.2 °F 29.83 in Calm     94% 0.19 in 42 W/m2
12:44 67 °F 65.2 °F 29.82 in NE 0.3 mph 3 mph 94% 0.24 in 60 W/m2
12:49 66.8 °F 65 °F 29.82 in NE 0.2 mph 3 mph 94% 0.27 in 47 W/m2
12:54 66.8 °F 65 °F 29.83 in North 0.7 mph 4 mph 94% 0.31 in 42 W/m2
12:59 66.8 °F 65 °F 29.83 in North 0.1 mph 4 mph 94% 0.44 in 49 W/m2
13:04 66.7 °F 64.9 °F 29.84 in NE 1.8 mph 5 mph 94% 0.44 in 90 W/m2
13:09 66.4 °F 64.6 °F 29.81 in ENE 1.3 mph 5 mph 94% 0.48 in 146 W/m2
13:14 66.3 °F 64.5 °F 29.80 in NE 0.6 mph 5 mph 94% 0.49 in 151 W/m2
13:19 66.2 °F 64.4 °F 29.80 in ENE 0.5 mph 5 mph 94% 0.49 in 199 W/m2
13:24 66.1 °F 64.5 °F 29.80 in ENE 0.2 mph 5 mph 94.4% 0.49 in 193 W/m2
13:29 66.1 °F 64.6 °F 29.80 in ENE 0.8 mph 6 mph 94.9% 0.49 in 151 W/m2
13:34 66.1 °F 64.5 °F 29.81 in NE 0.4 mph 6 mph 94.7% 0.49 in 163 W/m2
13:39 66.1 °F 64.6 °F 29.81 in North 0.8 mph 5 mph 95% 0.49 in 137 W/m2
13:44 66.4 °F 64.9 °F 29.81 in NNE 0.3 mph 5 mph 95% 0.49 in 144 W/m2
13:49 66.7 °F 65.2 °F 29.81 in NNW 2.3 mph 8 mph 95% 0.49 in 139 W/m2
13:54 66.5 °F 65.1 °F 29.83 in WNW 3 mph 8 mph 95% 0.50 in 83 W/m2
13:59 66.3 °F 64.8 °F 29.83 in NNE 1.1 mph 8 mph 95% 0.51 in 98 W/m2
14:04 66.1 °F 64.6 °F 29.81 in ENE 1.1 mph 8 mph 95% 0.51 in 95 W/m2
14:09 66 °F 64.6 °F 29.81 in ENE 0.3 mph 6 mph 95% 0.22 in 83 W/m2
14:14 66.1 °F 64.6 °F 29.81 in NNE 0.3 mph 6 mph 95% 0.22 in 77 W/m2
14:19 66 °F 64.5 °F 29.82 in NNW 0.2 mph 6 mph 95% 0.23 in 74 W/m2
14:24 66 °F 64.5 °F 29.82 in NNW 0.8 mph 6 mph 95% 0.24 in 40 W/m2
14:29 66 °F 64.5 °F 29.82 in NNW 0.2 mph 6 mph 95% 0.27 in 44 W/m2
14:34 65.9 °F 64.5 °F 29.81 in NNW 0.4 mph 6 mph 95% 0.27 in 53 W/m2
14:39 65.9 °F 64.4 °F 29.81 in NNW 0.5 mph 4 mph 95% 0.13 in 56 W/m2
14:44 66 °F 64.5 °F 29.81 in NNW 0.1 mph 4 mph 95% 0.14 in 58 W/m2
14:49 66 °F 64.5 °F 29.81 in North 1 mph 5 mph 95% 0.15 in 47 W/m2
14:54 65.9 °F 64.5 °F 29.81 in ENE 0.6 mph 5 mph 95% 0.15 in 37 W/m2
14:59 65.8 °F 64.3 °F 29.81 in ENE 0.7 mph 5 mph 95% 0.17 in 37 W/m2
15:04 65.8 °F 64.3 °F 29.81 in ENE 0.7 mph 5 mph 95% 0.19 in 47 W/m2
15:09 65.8 °F 64.3 °F 29.81 in ENE 0.6 mph 4 mph 95% 0.21 in 40 W/m2
15:14 65.9 °F 64.5 °F 29.81 in Calm   4 mph 95% 0.22 in 47 W/m2
15:19 66 °F 64.6 °F 29.79 in Calm   4 mph 95% 0.24 in 53 W/m2
15:24 66.1 °F 64.7 °F 29.79 in NNE 1.2 mph 5 mph 95% 0.25 in 49 W/m2
15:29 66.1 °F 64.6 °F 29.79 in NE 0.2 mph 5 mph 95% 0.27 in 26 W/m2
15:34 66.1 °F 64.6 °F 29.80 in NE 0.1 mph 5 mph 95% 0.27 in 21 W/m2
15:39 66.1 °F 64.6 °F 29.80 in NNE 0.5 mph 5 mph 95% 0.28 in 21 W/m2
15:44 66 °F 64.6 °F 29.80 in NE 1.1 mph 5 mph 95% 0.32 in 19 W/m2
15:49 66 °F 64.5 °F 29.79 in ENE 0.1 mph 5 mph 95% 0.35 in 26 W/m2
15:54 66 °F 64.6 °F 29.80 in NNE 0.9 mph 5 mph 95.2% 0.38 in 18 W/m2
15:59 66.1 °F 64.9 °F 29.79 in Calm   5 mph 96% 0.41 in 26 W/m2
16:09 66.2 °F 65 °F 29.80 in NW 1.5 mph 5 mph 96% 0.45 in 37 W/m2
16:14 66.3 °F 65.1 °F 29.80 in North 2 mph 10 mph 96% 0.46 in 44 W/m2
16:19 66.1 °F 64.9 °F 29.80 in WNW 1.7 mph 10 mph 96% 0.47 in 19 W/m2
16:24 66 °F 64.8 °F 29.78 in ENE 5.3 mph 12 mph 96% 0.51 in 35 W/m2
16:29 65.8 °F 64.6 °F 29.77 in NE 1.2 mph 12 mph 96% 0.54 in 28 W/m2
16:34 65.9 °F 64.7 °F 29.77 in NW 0.7 mph 12 mph 96% 0.54 in 9 W/m2
16:39 65.8 °F 64.7 °F 29.77 in NE 0.5 mph 5 mph 96% 0.35 in 11 W/m2
16:44 65.8 °F 64.6 °F 29.77 in NE 2.5 mph 7 mph 96% 0.35 in 18 W/m2
16:49 65.8 °F 64.6 °F 29.77 in NE 0.8 mph 7 mph 96% 0.35 in 19 W/m2
16:54 65.8 °F 64.6 °F 29.77 in NW 1.1 mph 11 mph 96% 0.35 in 18 W/m2
16:59 65.8 °F 64.6 °F 29.77 in NW 0.4 mph 11 mph 96% 0.35 in 11 W/m2
17:04 65.8 °F 64.7 °F 29.77 in NW 0.6 mph 11 mph 96% 0.35 in 25 W/m2
17:09 65.8 °F 64.6 °F 29.77 in NNE 0.2 mph 9 mph 96% 0.01 in 25 W/m2
17:14 65.9 °F 64.7 °F 29.77 in ENE 0.5 mph 9 mph 96% 0.02 in 23 W/m2
17:19 65.9 °F 64.7 °F 29.76 in North 0.3 mph 9 mph 96% 0.02 in 14 W/m2
17:24 65.8 °F 64.6 °F 29.77 in NW 1.7 mph 9 mph 96% 0.02 in 11 W/m2
17:29 65.8 °F 64.6 °F 29.79 in WNW 1.6 mph 9 mph 96% 0.02 in 5 W/m2
17:34 65.8 °F 64.6 °F 29.79 in WNW 2.5 mph 9 mph 96% 0.07 in 0 W/m2
17:39 65.7 °F 64.5 °F 29.79 in NW 1.7 mph 10 mph 96% 0.10 in 18 W/m2
17:44 65.6 °F 64.4 °F 29.78 in North 0.7 mph 10 mph 96% 0.10 in 19 W/m2
17:49 65.4 °F 64.2 °F 29.78 in NE 1.8 mph 10 mph 96% 0.10 in 9 W/m2
17:54 65.3 °F 64.1 °F 29.78 in NE 0.8 mph 10 mph 96% 0.11 in 0 W/m2
17:59 65.3 °F 64.1 °F 29.78 in North 0.5 mph 10 mph 96% 0.12 in 5 W/m2
18:04 65.3 °F 64.1 °F 29.78 in ENE 2.3 mph 10 mph 96% 0.12 in 11 W/m2
18:09 65.2 °F 64 °F 29.77 in ENE 1.1 mph 10 mph 96% 0.11 in 11 W/m2
18:14 65.2 °F 64 °F 29.77 in North 0.9 mph 10 mph 96% 0.11 in 5 W/m2
18:19 65.2 °F 64 °F 29.77 in North 0.6 mph 10 mph 96% 0.11 in 0 W/m2
18:24 65.1 °F 63.9 °F 29.77 in NNW 0.1 mph 10 mph 96% 0.11 in 0 W/m2
18:29 65 °F 63.9 °F 29.77 in NE 1.1 mph 10 mph 96% 0.11 in 0 W/m2
18:34 64.9 °F 63.8 °F 29.77 in North 0.4 mph 10 mph 96% 0.11 in 0 W/m2
18:39 64.9 °F 63.7 °F 29.75 in NNW 1.1 mph 7 mph 96% 0.10 in 0 W/m2
18:44 64.8 °F 63.6 °F 29.75 in ENE 0.9 mph 7 mph 96% 0.11 in 0 W/m2
18:49 64.7 °F 63.6 °F 29.76 in NNW 1.2 mph 7 mph 96% 0.18 in 0 W/m2
18:54 64.7 °F 63.5 °F 29.76 in NW 1.1 mph 9 mph 96% 0.23 in 0 W/m2
18:59 64.6 °F 63.4 °F 29.76 in NW 2.4 mph 11 mph 96% 0.25 in 0 W/m2
19:04 64.6 °F 63.4 °F 29.76 in NNW 2.3 mph 11 mph 96% 0.26 in 0 W/m2
19:09 64.5 °F 63.3 °F 29.76 in ENE 2.1 mph 9 mph 96% 0.24 in 0 W/m2
19:14 64.4 °F 63.2 °F 29.76 in NE 1.6 mph 9 mph 96% 0.26 in 0 W/m2
19:19 64.4 °F 63.2 °F 29.76 in NW 1 mph 9 mph 96% 0.28 in 0 W/m2
19:24 64.3 °F 63.2 °F 29.75 in NNW 0.5 mph 9 mph 96% 0.29 in 0 W/m2
19:29 64.3 °F 63.1 °F 29.75 in North 1.3 mph 9 mph 96% 0.30 in 0 W/m2
19:34 64.2 °F 63.1 °F 29.75 in NNW 0.8 mph 9 mph 96% 0.33 in 0 W/m2
19:39 64.2 °F 63 °F 29.75 in NNE 1.6 mph 7 mph 96% 0.36 in 0 W/m2
19:44 64.1 °F 63 °F 29.75 in North 1.3 mph 7 mph 96% 0.37 in 0 W/m2
19:49 64.1 °F 62.9 °F 29.76 in NNE 1.6 mph 8 mph 96% 0.39 in 0 W/m2
19:54 64 °F 62.8 °F 29.76 in ENE 0.5 mph 8 mph 96% 0.40 in 0 W/m2
19:59 64 °F 62.8 °F 29.77 in ENE 1.4 mph 8 mph 96% 0.42 in 0 W/m2
20:00 63.9 °F 62.7 °F 29.77 in Calm   8 mph 96% 0.42 in 0 W/m2
20:09 63.9 °F 62.7 °F 29.76 in East 0.5 mph 5 mph 96% 0.31 in 0 W/m2
20:14 63.8 °F 62.6 °F 29.76 in NE 2.8 mph 9 mph 96% 0.35 in 0 W/m2
20:19 63.8 °F 62.6 °F 29.76 in ENE 4.2 mph 12 mph 96% 0.40 in 0 W/m2
20:24 63.7 °F 62.5 °F 29.75 in ENE 5.4 mph 17 mph 96% 0.44 in 0 W/m2
20:29 63.6 °F 62.4 °F 29.75 in NE 2.5 mph 17 mph 96% 0.47 in 0 W/m2
20:34 63.4 °F 62.3 °F 29.74 in NE 5.2 mph 17 mph 96% 0.47 in 0 W/m2
20:39 63.2 °F 62.1 °F 29.73 in ESE 2.6 mph 14 mph 96% 0.36 in 0 W/m2
20:44 63.1 °F 62 °F 29.72 in ENE 2.1 mph 14 mph 96% 0.39 in 0 W/m2
20:49 63 °F 61.9 °F 29.72 in ENE 3.5 mph 14 mph 96% 0.41 in 0 W/m2
20:54 62.9 °F 61.8 °F 29.72 in ENE 3.9 mph 14 mph 96% 0.43 in 0 W/m2
20:59 62.8 °F 61.7 °F 29.72 in ENE 3.5 mph 14 mph 96% 0.47 in 0 W/m2
21:04 62.7 °F 61.6 °F 29.72 in ENE 5.4 mph 14 mph 96% 0.47 in 0 W/m2
21:09 62.7 °F 61.6 °F 29.72 in ENE 5 mph 13 mph 96% 0.44 in 0 W/m2
21:14 62.7 °F 61.6 °F 29.72 in NE 4.7 mph 13 mph 96% 0.47 in 0 W/m2
21:19 62.7 °F 61.6 °F 29.72 in ENE 4.7 mph 15 mph 96% 0.50 in 0 W/m2
21:24 62.7 °F 61.6 °F 29.72 in NE 4.2 mph 15 mph 96% 0.53 in 0 W/m2
21:28 62.7 °F 61.6 °F 29.72 in ENE 3.1 mph 15 mph 96% 0.56 in 0 W/m2
21:30 62.7 °F 61.6 °F 29.72 in ENE 4 mph 15 mph 96% 0.21 in 0 W/m2
22:00 62.6 °F 61.7 °F 29.69 in ENE 4 mph 16 mph 97% 0.26 in 0 W/m2
22:44 62.3 °F 61.1 °F 29.66 in East 6.1 mph 15 mph 96% 0.80 in 0 W/m2
22:49 62.2 °F 61.1 °F 29.65 in ENE 7.2 mph 16 mph 96% 0.83 in 0 W/m2
22:54 62.2 °F 61.2 °F 29.65 in NE 7.5 mph 18 mph 96.7% 0.86 in 0 W/m2
22:59 62.1 °F 61.3 °F 29.65 in NE 7.7 mph 19 mph 97% 0.89 in 0 W/m2
23:04 62.1 °F 61.2 °F 29.64 in NE 7.6 mph 19 mph 97% 0.89 in 0 W/m2
23:09 62 °F 61.1 °F 29.63 in ENE 5.8 mph 18 mph 97% 0.91 in 0 W/m2
23:14 62 °F 61.1 °F 29.63 in NE 6 mph 18 mph 97% 0.97 in 0 W/m2
23:19 61.9 °F 61.1 °F 29.63 in ENE 4.8 mph 18 mph 97% 1.02 in 0 W/m2
23:24 61.9 °F 61 °F 29.63 in ENE 3.4 mph 18 mph 97% 1.05 in 0 W/m2
23:29 61.8 °F 61 °F 29.61 in ENE 6.4 mph 18 mph 97% 1.10 in 0 W/m2
23:34 61.8 °F 60.8 °F 29.61 in ENE 3.7 mph 18 mph 96.4% 1.10 in 0 W/m2
23:39 61.7 °F 60.6 °F 29.60 in ENE 4.8 mph 16 mph 96.1% 0.44 in 0 W/m2
23:44 61.7 °F 60.8 °F 29.60 in ENE 5 mph 16 mph 97% 0.55 in 0 W/m2
23:49 61.7 °F 60.8 °F 29.61 in ENE 5 mph 16 mph 97% 0.65 in 0 W/m2
23:54 61.7 °F 60.8 °F 29.60 in ENE 5.3 mph 20 mph 97% 0.76 in 0 W/m2
23:58 61.6 °F 60.8 °F 29.60 in NE 6.5 mph 20 mph 97% 0.85 in 0 W/m2
Hartford County Weather
Compliments of Weather Underground - 4 mb